sensor_id;sensor_type;location;lat;lon;timestamp;pressure;altitude;pressure_sealevel;temperature;humidity
54920;BME280;63804;53.120;8.764;2024-01-10T00:02:21;103667.50;;;-2.43;73.32
54920;BME280;63804;53.120;8.764;2024-01-10T00:04:49;103667.53;;;-2.41;73.31
54920;BME280;63804;53.120;8.764;2024-01-10T00:07:18;103672.81;;;-2.38;73.04
54920;BME280;63804;53.120;8.764;2024-01-10T00:09:46;103668.16;;;-2.52;73.55
54920;BME280;63804;53.120;8.764;2024-01-10T00:12:14;103665.00;;;-2.40;73.15
54920;BME280;63804;53.120;8.764;2024-01-10T00:14:43;103666.91;;;-2.33;72.62
54920;BME280;63804;53.120;8.764;2024-01-10T00:17:11;103658.19;;;-2.36;72.38
54920;BME280;63804;53.120;8.764;2024-01-10T00:19:39;103653.03;;;-2.35;72.58
54920;BME280;63804;53.120;8.764;2024-01-10T00:22:07;103652.81;;;-2.42;72.75
54920;BME280;63804;53.120;8.764;2024-01-10T00:24:35;103650.38;;;-2.98;73.74
54920;BME280;63804;53.120;8.764;2024-01-10T00:27:04;103651.97;;;-2.73;74.50
54920;BME280;63804;53.120;8.764;2024-01-10T00:29:33;103631.72;;;-2.55;73.19
54920;BME280;63804;53.120;8.764;2024-01-10T00:32:04;103628.31;;;-2.52;73.49
54920;BME280;63804;53.120;8.764;2024-01-10T00:34:32;103630.13;;;-2.50;73.00
54920;BME280;63804;53.120;8.764;2024-01-10T00:37:00;103628.41;;;-2.49;73.18
54920;BME280;63804;53.120;8.764;2024-01-10T00:39:28;103621.91;;;-2.66;73.86
54920;BME280;63804;53.120;8.764;2024-01-10T00:41:56;103618.34;;;-2.70;73.30
54920;BME280;63804;53.120;8.764;2024-01-10T00:44:24;103619.31;;;-2.66;72.56
54920;BME280;63804;53.120;8.764;2024-01-10T00:46:53;103620.31;;;-2.61;71.72
54920;BME280;63804;53.120;8.764;2024-01-10T00:49:21;103613.47;;;-2.59;71.81
54920;BME280;63804;53.120;8.764;2024-01-10T00:51:49;103612.44;;;-2.64;72.31
54920;BME280;63804;53.120;8.764;2024-01-10T00:54:17;103615.22;;;-2.58;72.16
54920;BME280;63804;53.120;8.764;2024-01-10T00:56:45;103609.06;;;-2.62;72.29
54920;BME280;63804;53.120;8.764;2024-01-10T00:59:13;103600.41;;;-2.62;72.92
54920;BME280;63804;53.120;8.764;2024-01-10T01:01:41;103600.59;;;-2.55;73.28
54920;BME280;63804;53.120;8.764;2024-01-10T01:04:09;103599.19;;;-2.43;72.79
54920;BME280;63804;53.120;8.764;2024-01-10T01:06:37;103596.41;;;-2.50;73.31
54920;BME280;63804;53.120;8.764;2024-01-10T01:09:05;103587.66;;;-2.53;73.31
54920;BME280;63804;53.120;8.764;2024-01-10T01:11:33;103602.66;;;-2.41;73.17
54920;BME280;63804;53.120;8.764;2024-01-10T01:14:01;103600.53;;;-2.56;73.94
54920;BME280;63804;53.120;8.764;2024-01-10T01:16:29;103600.94;;;-2.42;73.49
54920;BME280;63804;53.120;8.764;2024-01-10T01:18:57;103602.34;;;-2.55;73.69
54920;BME280;63804;53.120;8.764;2024-01-10T01:21:25;103600.94;;;-2.42;73.39
54920;BME280;63804;53.120;8.764;2024-01-10T01:23:54;103598.50;;;-2.36;72.94
54920;BME280;63804;53.120;8.764;2024-01-10T01:26:22;103598.97;;;-2.51;73.28
54920;BME280;63804;53.120;8.764;2024-01-10T01:28:50;103597.63;;;-2.68;73.24
54920;BME280;63804;53.120;8.764;2024-01-10T01:31:18;103603.75;;;-2.66;74.10
54920;BME280;63804;53.120;8.764;2024-01-10T01:33:46;103603.97;;;-2.59;73.52
54920;BME280;63804;53.120;8.764;2024-01-10T01:36:15;103611.97;;;-2.81;74.24
54920;BME280;63804;53.120;8.764;2024-01-10T01:38:43;103617.47;;;-3.01;74.72
54920;BME280;63804;53.120;8.764;2024-01-10T01:41:11;103622.28;;;-3.13;74.90
54920;BME280;63804;53.120;8.764;2024-01-10T01:43:40;103616.47;;;-3.34;75.46
54920;BME280;63804;53.120;8.764;2024-01-10T01:46:08;103616.06;;;-3.48;76.09
54920;BME280;63804;53.120;8.764;2024-01-10T01:48:37;103622.53;;;-3.34;76.15
54920;BME280;63804;53.120;8.764;2024-01-10T01:51:06;103625.81;;;-3.11;75.63
54920;BME280;63804;53.120;8.764;2024-01-10T01:53:35;103617.41;;;-2.72;74.08
54920;BME280;63804;53.120;8.764;2024-01-10T01:56:07;103608.00;;;-2.68;72.98
54920;BME280;63804;53.120;8.764;2024-01-10T01:58:36;103618.25;;;-2.73;72.90
54920;BME280;63804;53.120;8.764;2024-01-10T02:01:05;103610.75;;;-2.94;73.75
54920;BME280;63804;53.120;8.764;2024-01-10T02:03:34;103610.34;;;-2.78;73.46
54920;BME280;63804;53.120;8.764;2024-01-10T02:06:03;103613.63;;;-2.83;73.36
54920;BME280;63804;53.120;8.764;2024-01-10T02:08:35;103613.44;;;-2.91;73.98
54920;BME280;63804;53.120;8.764;2024-01-10T02:11:03;103606.69;;;-3.16;75.13
54920;BME280;63804;53.120;8.764;2024-01-10T02:13:33;103605.88;;;-2.83;74.52
54920;BME280;63804;53.120;8.764;2024-01-10T02:16:03;103611.44;;;-2.70;73.66
54920;BME280;63804;53.120;8.764;2024-01-10T02:18:31;103613.50;;;-2.56;73.03
54920;BME280;63804;53.120;8.764;2024-01-10T02:21:00;103611.59;;;-2.63;73.08
54920;BME280;63804;53.120;8.764;2024-01-10T02:23:28;103604.34;;;-2.75;73.58
54920;BME280;63804;53.120;8.764;2024-01-10T02:25:57;103607.16;;;-2.67;73.21
54920;BME280;63804;53.120;8.764;2024-01-10T02:28:25;103602.28;;;-2.57;73.06
54920;BME280;63804;53.120;8.764;2024-01-10T02:30:54;103603.78;;;-2.65;72.85
54920;BME280;63804;53.120;8.764;2024-01-10T02:33:22;103593.28;;;-2.70;72.89
54920;BME280;63804;53.120;8.764;2024-01-10T02:35:51;103593.03;;;-2.79;73.77
54920;BME280;63804;53.120;8.764;2024-01-10T02:38:19;103590.72;;;-2.68;73.37
54920;BME280;63804;53.120;8.764;2024-01-10T02:40:49;103597.72;;;-2.65;73.19
54920;BME280;63804;53.120;8.764;2024-01-10T02:43:18;103583.69;;;-2.72;73.10
54920;BME280;63804;53.120;8.764;2024-01-10T02:45:46;103586.19;;;-2.75;73.06
54920;BME280;63804;53.120;8.764;2024-01-10T02:48:14;103586.84;;;-2.84;73.30
54920;BME280;63804;53.120;8.764;2024-01-10T02:50:42;103586.28;;;-2.72;73.21
54920;BME280;63804;53.120;8.764;2024-01-10T02:53:13;103568.13;;;-2.74;72.81
54920;BME280;63804;53.120;8.764;2024-01-10T02:55:43;103582.63;;;-2.80;73.43
54920;BME280;63804;53.120;8.764;2024-01-10T02:58:11;103573.00;;;-2.84;73.48
54920;BME280;63804;53.120;8.764;2024-01-10T03:00:39;103582.59;;;-2.82;73.28
54920;BME280;63804;53.120;8.764;2024-01-10T03:03:10;103583.50;;;-2.80;73.46
54920;BME280;63804;53.120;8.764;2024-01-10T03:05:38;103584.53;;;-2.75;73.12
54920;BME280;63804;53.120;8.764;2024-01-10T03:08:07;103592.22;;;-2.78;72.96
54920;BME280;63804;53.120;8.764;2024-01-10T03:10:35;103587.50;;;-2.91;73.72
54920;BME280;63804;53.120;8.764;2024-01-10T03:13:03;103586.16;;;-2.78;73.72
54920;BME280;63804;53.120;8.764;2024-01-10T03:15:31;103587.34;;;-2.65;72.86
54920;BME280;63804;53.120;8.764;2024-01-10T03:18:00;103581.19;;;-2.69;72.91
54920;BME280;63804;53.120;8.764;2024-01-10T03:20:29;103578.91;;;-2.90;73.24
54920;BME280;63804;53.120;8.764;2024-01-10T03:22:57;103578.97;;;-2.87;73.33
54920;BME280;63804;53.120;8.764;2024-01-10T03:25:25;103575.69;;;-2.81;73.21
54920;BME280;63804;53.120;8.764;2024-01-10T03:27:53;103568.69;;;-2.84;73.19
54920;BME280;63804;53.120;8.764;2024-01-10T03:30:21;103567.16;;;-3.09;73.83
54920;BME280;63804;53.120;8.764;2024-01-10T03:32:52;103561.28;;;-3.02;73.64
54920;BME280;63804;53.120;8.764;2024-01-10T03:35:20;103560.56;;;-2.98;73.30
54920;BME280;63804;53.120;8.764;2024-01-10T03:37:48;103564.91;;;-2.95;73.18
54920;BME280;63804;53.120;8.764;2024-01-10T03:40:16;103559.59;;;-3.01;73.24
54920;BME280;63804;53.120;8.764;2024-01-10T03:42:44;103551.75;;;-3.03;73.06
54920;BME280;63804;53.120;8.764;2024-01-10T03:45:12;103555.59;;;-3.20;73.83
54920;BME280;63804;53.120;8.764;2024-01-10T03:47:49;103550.53;;;-3.15;73.52
54920;BME280;63804;53.120;8.764;2024-01-10T03:50:19;103553.25;;;-3.11;73.41
54920;BME280;63804;53.120;8.764;2024-01-10T03:52:48;103550.34;;;-3.22;73.51
54920;BME280;63804;53.120;8.764;2024-01-10T03:55:16;103544.31;;;-3.21;73.45
54920;BME280;63804;53.120;8.764;2024-01-10T03:57:44;103555.09;;;-3.07;73.38
54920;BME280;63804;53.120;8.764;2024-01-10T04:00:12;103562.69;;;-3.13;72.93
54920;BME280;63804;53.120;8.764;2024-01-10T04:02:40;103573.22;;;-3.37;73.80
54920;BME280;63804;53.120;8.764;2024-01-10T04:05:09;103577.66;;;-3.33;73.81
54920;BME280;63804;53.120;8.764;2024-01-10T04:07:40;103576.75;;;-3.63;75.12
54920;BME280;63804;53.120;8.764;2024-01-10T04:10:10;103583.59;;;-3.37;74.67
54920;BME280;63804;53.120;8.764;2024-01-10T04:12:39;103563.31;;;-3.22;74.27
54920;BME280;63804;53.120;8.764;2024-01-10T04:15:07;103561.22;;;-3.35;74.57
54920;BME280;63804;53.120;8.764;2024-01-10T04:17:35;103560.56;;;-3.28;74.31
54920;BME280;63804;53.120;8.764;2024-01-10T04:20:04;103553.34;;;-3.08;73.64
54920;BME280;63804;53.120;8.764;2024-01-10T04:22:32;103531.78;;;-3.07;73.17
54920;BME280;63804;53.120;8.764;2024-01-10T04:25:01;103546.34;;;-3.10;73.19
54920;BME280;63804;53.120;8.764;2024-01-10T04:27:29;103551.53;;;-3.10;73.39
54920;BME280;63804;53.120;8.764;2024-01-10T04:29:58;103562.91;;;-3.05;73.33
54920;BME280;63804;53.120;8.764;2024-01-10T04:32:26;103560.50;;;-2.99;73.04
54920;BME280;63804;53.120;8.764;2024-01-10T04:34:54;103561.25;;;-3.03;72.93
54920;BME280;63804;53.120;8.764;2024-01-10T04:37:22;103563.88;;;-3.02;72.79
54920;BME280;63804;53.120;8.764;2024-01-10T04:39:50;103566.13;;;-3.14;72.85
54920;BME280;63804;53.120;8.764;2024-01-10T04:42:18;103562.63;;;-3.16;73.17
54920;BME280;63804;53.120;8.764;2024-01-10T04:44:46;103561.91;;;-3.10;72.92
54920;BME280;63804;53.120;8.764;2024-01-10T04:47:14;103560.09;;;-3.13;72.72
54920;BME280;63804;53.120;8.764;2024-01-10T04:49:42;103558.41;;;-3.12;72.84
54920;BME280;63804;53.120;8.764;2024-01-10T04:52:11;103548.59;;;-3.23;72.95
54920;BME280;63804;53.120;8.764;2024-01-10T04:54:40;103556.50;;;-3.18;72.78
54920;BME280;63804;53.120;8.764;2024-01-10T04:57:08;103556.50;;;-3.18;72.81
54920;BME280;63804;53.120;8.764;2024-01-10T04:59:36;103546.03;;;-3.21;72.80
54920;BME280;63804;53.120;8.764;2024-01-10T05:02:04;103551.19;;;-3.23;72.76
54920;BME280;63804;53.120;8.764;2024-01-10T05:04:32;103543.44;;;-3.21;72.94
54920;BME280;63804;53.120;8.764;2024-01-10T05:07:00;103541.50;;;-3.28;72.91
54920;BME280;63804;53.120;8.764;2024-01-10T05:09:28;103540.72;;;-3.27;73.14
54920;BME280;63804;53.120;8.764;2024-01-10T05:11:56;103538.88;;;-3.31;72.99
54920;BME280;63804;53.120;8.764;2024-01-10T05:14:24;103550.84;;;-3.35;73.13
54920;BME280;63804;53.120;8.764;2024-01-10T05:16:52;103542.53;;;-3.23;73.02
54920;BME280;63804;53.120;8.764;2024-01-10T05:19:21;103536.00;;;-3.40;73.56
54920;BME280;63804;53.120;8.764;2024-01-10T05:21:49;103539.53;;;-3.37;73.50
54920;BME280;63804;53.120;8.764;2024-01-10T05:24:17;103536.31;;;-3.30;72.99
54920;BME280;63804;53.120;8.764;2024-01-10T05:26:47;103543.19;;;-3.30;73.20
54920;BME280;63804;53.120;8.764;2024-01-10T05:29:19;103542.34;;;-3.31;73.19
54920;BME280;63804;53.120;8.764;2024-01-10T05:31:47;103539.63;;;-3.35;73.54
54920;BME280;63804;53.120;8.764;2024-01-10T05:34:16;103536.53;;;-3.22;73.30
54920;BME280;63804;53.120;8.764;2024-01-10T05:36:44;103535.88;;;-3.15;73.27
54920;BME280;63804;53.120;8.764;2024-01-10T05:39:12;103536.06;;;-3.07;72.93
54920;BME280;63804;53.120;8.764;2024-01-10T05:41:43;103536.44;;;-3.25;73.21
54920;BME280;63804;53.120;8.764;2024-01-10T05:44:13;103533.38;;;-3.12;73.54
54920;BME280;63804;53.120;8.764;2024-01-10T05:46:42;103535.31;;;-3.03;72.90
54920;BME280;63804;53.120;8.764;2024-01-10T05:49:11;103536.84;;;-3.11;73.29
54920;BME280;63804;53.120;8.764;2024-01-10T05:51:39;103535.75;;;-3.20;73.75
54920;BME280;63804;53.120;8.764;2024-01-10T05:54:07;103536.25;;;-3.01;73.44
54920;BME280;63804;53.120;8.764;2024-01-10T05:56:35;103529.09;;;-3.10;73.41
54920;BME280;63804;53.120;8.764;2024-01-10T05:59:03;103536.72;;;-3.16;73.57
54920;BME280;63804;53.120;8.764;2024-01-10T06:01:32;103531.34;;;-3.22;73.91
54920;BME280;63804;53.120;8.764;2024-01-10T06:04:00;103525.53;;;-3.13;73.73
54920;BME280;63804;53.120;8.764;2024-01-10T06:06:29;103529.34;;;-3.01;73.35
54920;BME280;63804;53.120;8.764;2024-01-10T06:08:57;103532.72;;;-3.03;72.98
54920;BME280;63804;53.120;8.764;2024-01-10T06:11:25;103523.16;;;-3.06;73.10
54920;BME280;63804;53.120;8.764;2024-01-10T06:13:54;103520.66;;;-3.03;72.99
54920;BME280;63804;53.120;8.764;2024-01-10T06:16:24;103505.81;;;-3.08;73.17
54920;BME280;63804;53.120;8.764;2024-01-10T06:18:52;103516.41;;;-3.01;72.83
54920;BME280;63804;53.120;8.764;2024-01-10T06:21:21;103512.88;;;-3.03;72.80
54920;BME280;63804;53.120;8.764;2024-01-10T06:23:49;103499.63;;;-3.13;72.95
54920;BME280;63804;53.120;8.764;2024-01-10T06:26:17;103519.03;;;-2.99;72.53
54920;BME280;63804;53.120;8.764;2024-01-10T06:28:45;103519.03;;;-2.99;72.45
54920;BME280;63804;53.120;8.764;2024-01-10T06:31:13;103517.75;;;-3.13;72.84
54920;BME280;63804;53.120;8.764;2024-01-10T06:33:41;103511.47;;;-3.22;73.25
54920;BME280;63804;53.120;8.764;2024-01-10T06:36:10;103511.56;;;-3.19;73.14
54920;BME280;63804;53.120;8.764;2024-01-10T06:38:39;103517.84;;;-3.10;73.03
54920;BME280;63804;53.120;8.764;2024-01-10T06:41:11;103524.13;;;-3.02;72.67
54920;BME280;63804;53.120;8.764;2024-01-10T06:43:42;103525.03;;;-3.00;72.41
54920;BME280;63804;53.120;8.764;2024-01-10T06:46:10;103524.97;;;-3.03;72.68
54920;BME280;63804;53.120;8.764;2024-01-10T06:48:39;103520.53;;;-3.07;72.83
54920;BME280;63804;53.120;8.764;2024-01-10T06:51:12;103527.75;;;-2.96;72.74
54920;BME280;63804;53.120;8.764;2024-01-10T06:53:40;103526.97;;;-2.93;72.97
54920;BME280;63804;53.120;8.764;2024-01-10T06:56:09;103523.16;;;-3.06;73.10
54920;BME280;63804;53.120;8.764;2024-01-10T06:58:39;103532.06;;;-2.96;72.83
54920;BME280;63804;53.120;8.764;2024-01-10T07:01:11;103524.13;;;-3.02;73.10
54920;BME280;63804;53.120;8.764;2024-01-10T07:03:42;103529.56;;;-2.93;72.88
54920;BME280;63804;53.120;8.764;2024-01-10T07:06:10;103536.38;;;-2.97;72.73
54920;BME280;63804;53.120;8.764;2024-01-10T07:08:43;103523.75;;;-3.16;72.78
54920;BME280;63804;53.120;8.764;2024-01-10T07:11:15;103533.53;;;-3.06;73.26
54920;BME280;63804;53.120;8.764;2024-01-10T07:13:43;103534.38;;;-3.05;72.96
54920;BME280;63804;53.120;8.764;2024-01-10T07:16:11;103523.13;;;-3.07;72.97
54920;BME280;63804;53.120;8.764;2024-01-10T07:18:42;103525.91;;;-3.01;72.82
54920;BME280;63804;53.120;8.764;2024-01-10T07:21:11;103526.09;;;-2.93;73.02
54920;BME280;63804;53.120;8.764;2024-01-10T07:23:39;103527.72;;;-2.97;72.55
54920;BME280;63804;53.120;8.764;2024-01-10T07:26:08;103540.03;;;-2.90;72.46
54920;BME280;63804;53.120;8.764;2024-01-10T07:28:37;103547.66;;;-2.95;72.67
54920;BME280;63804;53.120;8.764;2024-01-10T07:31:06;103546.78;;;-2.95;72.70
54920;BME280;63804;53.120;8.764;2024-01-10T07:33:34;103543.53;;;-2.86;72.50
54920;BME280;63804;53.120;8.764;2024-01-10T07:36:02;103542.22;;;-3.04;72.56
54920;BME280;63804;53.120;8.764;2024-01-10T07:38:30;103538.22;;;-3.24;73.10
54920;BME280;63804;53.120;8.764;2024-01-10T07:40:58;103554.69;;;-3.21;73.69
54920;BME280;63804;53.120;8.764;2024-01-10T07:43:27;103550.19;;;-3.28;73.29
54920;BME280;63804;53.120;8.764;2024-01-10T07:45:56;103546.94;;;-3.51;74.31
54920;BME280;63804;53.120;8.764;2024-01-10T07:48:24;103547.75;;;-3.22;73.72
54920;BME280;63804;53.120;8.764;2024-01-10T07:50:53;103559.28;;;-3.12;73.36
54920;BME280;63804;53.120;8.764;2024-01-10T07:53:23;103559.38;;;-3.09;73.08
54920;BME280;63804;53.120;8.764;2024-01-10T07:55:54;103557.47;;;-3.14;73.37
54920;BME280;63804;53.120;8.764;2024-01-10T07:58:22;103568.91;;;-3.08;73.46
54920;BME280;63804;53.120;8.764;2024-01-10T08:00:50;103571.50;;;-3.36;73.74
54920;BME280;63804;53.120;8.764;2024-01-10T08:03:19;103574.91;;;-3.39;74.03
54920;BME280;63804;53.120;8.764;2024-01-10T08:05:47;103572.84;;;-3.51;74.94
54920;BME280;63804;53.120;8.764;2024-01-10T08:08:15;103556.38;;;-3.23;74.27
54920;BME280;63804;53.120;8.764;2024-01-10T08:10:44;103558.56;;;-3.06;73.38
54920;BME280;63804;53.120;8.764;2024-01-10T08:13:12;103557.91;;;-2.99;73.19
54920;BME280;63804;53.120;8.764;2024-01-10T08:15:40;103553.66;;;-2.97;72.87
54920;BME280;63804;53.120;8.764;2024-01-10T08:18:09;103559.72;;;-2.97;73.09
54920;BME280;63804;53.120;8.764;2024-01-10T08:20:37;103559.81;;;-2.93;72.78
54920;BME280;63804;53.120;8.764;2024-01-10T08:23:05;103560.16;;;-2.80;72.56
54920;BME280;63804;53.120;8.764;2024-01-10T08:25:34;103562.72;;;-2.81;72.48
54920;BME280;63804;53.120;8.764;2024-01-10T08:28:02;103556.09;;;-2.70;72.35
54920;BME280;63804;53.120;8.764;2024-01-10T08:30:30;103563.00;;;-2.71;72.23
54920;BME280;63804;53.120;8.764;2024-01-10T08:33:00;103558.59;;;-2.75;72.41
54920;BME280;63804;53.120;8.764;2024-01-10T08:35:31;103560.41;;;-2.71;72.27
54920;BME280;63804;53.120;8.764;2024-01-10T08:37:59;103551.63;;;-2.76;72.47
54920;BME280;63804;53.120;8.764;2024-01-10T08:40:29;103556.03;;;-2.73;72.50
54920;BME280;63804;53.120;8.764;2024-01-10T08:43:00;103555.91;;;-2.78;72.88
54920;BME280;63804;53.120;8.764;2024-01-10T08:45:28;103552.09;;;-2.59;72.27
54920;BME280;63804;53.120;8.764;2024-01-10T08:47:56;103556.25;;;-2.64;72.54
54920;BME280;63804;53.120;8.764;2024-01-10T08:50:26;103560.75;;;-2.58;72.50
54920;BME280;63804;53.120;8.764;2024-01-10T08:52:54;103558.81;;;-2.65;72.95
54920;BME280;63804;53.120;8.764;2024-01-10T08:55:22;103558.25;;;-2.54;72.92
54920;BME280;63804;53.120;8.764;2024-01-10T08:57:50;103547.84;;;-2.55;72.59
54920;BME280;63804;53.120;8.764;2024-01-10T09:00:18;103548.00;;;-2.49;72.61
54920;BME280;63804;53.120;8.764;2024-01-10T09:02:46;103550.88;;;-2.38;72.53
54920;BME280;63804;53.120;8.764;2024-01-10T09:05:14;103553.25;;;-2.48;72.65
54920;BME280;63804;53.120;8.764;2024-01-10T09:07:42;103552.72;;;-2.33;72.25
54920;BME280;63804;53.120;8.764;2024-01-10T09:10:10;103544.91;;;-2.34;72.13
54920;BME280;63804;53.120;8.764;2024-01-10T09:12:39;103560.59;;;-2.30;72.22
54920;BME280;63804;53.120;8.764;2024-01-10T09:15:07;103554.78;;;-2.21;71.80
54920;BME280;63804;53.120;8.764;2024-01-10T09:17:44;103548.47;;;-2.31;71.91
54920;BME280;63804;53.120;8.764;2024-01-10T09:20:12;103539.38;;;-2.13;71.96
54920;BME280;63804;53.120;8.764;2024-01-10T09:22:41;103549.22;;;-2.00;71.04
54920;BME280;63804;53.120;8.764;2024-01-10T09:25:09;103536.03;;;-2.09;70.95
54920;BME280;63804;53.120;8.764;2024-01-10T09:27:40;103539.44;;;-2.10;70.71
54920;BME280;63804;53.120;8.764;2024-01-10T09:30:12;103531.81;;;-2.03;70.56
54920;BME280;63804;53.120;8.764;2024-01-10T09:32:40;103536.72;;;-2.16;70.32
54920;BME280;63804;53.120;8.764;2024-01-10T09:35:08;103536.97;;;-2.06;69.87
54920;BME280;63804;53.120;8.764;2024-01-10T09:37:37;103531.22;;;-1.92;69.44
54920;BME280;63804;53.120;8.764;2024-01-10T09:40:05;103537.75;;;-2.10;68.98
54920;BME280;63804;53.120;8.764;2024-01-10T09:42:36;103528.06;;;-2.17;69.69
54920;BME280;63804;53.120;8.764;2024-01-10T09:45:06;103538.47;;;-2.15;69.21
54920;BME280;63804;53.120;8.764;2024-01-10T09:47:36;103546.88;;;-1.89;69.02
54920;BME280;63804;53.120;8.764;2024-01-10T09:50:05;103545.75;;;-2.01;67.84
54920;BME280;63804;53.120;8.764;2024-01-10T09:52:41;103542.59;;;-2.24;68.90
54920;BME280;63804;53.120;8.764;2024-01-10T09:55:11;103542.47;;;-1.92;68.35
54920;BME280;63804;53.120;8.764;2024-01-10T09:57:40;103535.69;;;-1.87;67.07
54920;BME280;63804;53.120;8.764;2024-01-10T10:00:10;103540.19;;;-1.78;67.41
54920;BME280;63804;53.120;8.764;2024-01-10T10:02:39;103536.16;;;-1.65;66.97
54920;BME280;63804;53.120;8.764;2024-01-10T10:07:47;103532.50;;;-1.74;66.73
54920;BME280;63804;53.120;8.764;2024-01-10T10:10:18;103535.88;;;-1.78;66.01
54920;BME280;63804;53.120;8.764;2024-01-10T10:12:52;103533.25;;;-1.79;66.89
54920;BME280;63804;53.120;8.764;2024-01-10T10:15:22;103531.97;;;-1.59;66.20
54920;BME280;63804;53.120;8.764;2024-01-10T10:17:51;103530.88;;;-1.68;65.78
54920;BME280;63804;53.120;8.764;2024-01-10T10:20:26;103533.78;;;-1.56;66.28
54920;BME280;63804;53.120;8.764;2024-01-10T10:25:31;103527.88;;;-1.48;65.32
54920;BME280;63804;53.120;8.764;2024-01-10T10:28:03;103532.28;;;-1.45;64.72
54920;BME280;63804;53.120;8.764;2024-01-10T10:30:32;103522.13;;;-1.33;64.17
54920;BME280;63804;53.120;8.764;2024-01-10T10:33:02;103525.44;;;-1.40;64.20
54920;BME280;63804;53.120;8.764;2024-01-10T10:35:32;103509.06;;;-1.36;63.97
54920;BME280;63804;53.120;8.764;2024-01-10T10:38:08;103522.94;;;-1.35;63.65
54920;BME280;63804;53.120;8.764;2024-01-10T10:40:39;103532.03;;;-1.56;64.01
54920;BME280;63804;53.120;8.764;2024-01-10T10:43:12;103520.31;;;-1.37;63.70
54920;BME280;63804;53.120;8.764;2024-01-10T10:45:49;103525.38;;;-1.41;63.67
54920;BME280;63804;53.120;8.764;2024-01-10T10:48:19;103509.94;;;-1.34;63.64
54920;BME280;63804;53.120;8.764;2024-01-10T10:50:59;103507.50;;;-1.26;63.99
54920;BME280;63804;53.120;8.764;2024-01-10T10:53:33;103503.31;;;-1.19;64.08
54920;BME280;63804;53.120;8.764;2024-01-10T10:56:06;103503.53;;;-1.07;63.89
54920;BME280;63804;53.120;8.764;2024-01-10T10:58:40;103499.13;;;-1.13;63.88
54920;BME280;63804;53.120;8.764;2024-01-10T11:01:12;103505.81;;;-1.26;63.99
54920;BME280;63804;53.120;8.764;2024-01-10T11:03:41;103499.25;;;-1.05;63.73
54920;BME280;63804;53.120;8.764;2024-01-10T11:06:17;103497.63;;;-1.00;63.80
54920;BME280;63804;53.120;8.764;2024-01-10T11:08:52;103503.00;;;-0.91;62.92
54920;BME280;63804;53.120;8.764;2024-01-10T11:19:58;103499.53;;;-0.91;61.72
54920;BME280;63804;53.120;8.764;2024-01-10T11:25:05;103489.34;;;-0.78;60.94
54920;BME280;63804;53.120;8.764;2024-01-10T11:27:36;103484.59;;;-1.02;60.90
54920;BME280;63804;53.120;8.764;2024-01-10T11:30:05;103486.53;;;-0.90;61.69
54920;BME280;63804;53.120;8.764;2024-01-10T11:32:33;103484.38;;;-0.65;61.13
54920;BME280;63804;53.120;8.764;2024-01-10T11:35:19;103473.25;;;-0.57;60.08
54920;BME280;63804;53.120;8.764;2024-01-10T11:37:48;103486.06;;;-0.67;60.40
54920;BME280;63804;53.120;8.764;2024-01-10T11:40:47;103474.94;;;-0.59;59.33
54920;BME280;63804;53.120;8.764;2024-01-10T11:43:18;103476.47;;;-0.71;59.72
54920;BME280;63804;53.120;8.764;2024-01-10T11:45:54;103467.88;;;-0.67;59.55
54920;BME280;63804;53.120;8.764;2024-01-10T11:48:32;103481.22;;;-0.46;59.36
54920;BME280;63804;53.120;8.764;2024-01-10T11:51:00;103480.34;;;-0.46;59.16
54920;BME280;63804;53.120;8.764;2024-01-10T11:53:42;103472.69;;;-0.37;57.77
54920;BME280;63804;53.120;8.764;2024-01-10T11:56:12;103475.38;;;-0.31;58.25
54920;BME280;63804;53.120;8.764;2024-01-10T11:59:01;103477.97;;;-0.33;57.28
54920;BME280;63804;53.120;8.764;2024-01-10T12:01:36;103474.63;;;-0.26;57.51
54920;BME280;63804;53.120;8.764;2024-01-10T12:04:05;103465.81;;;-0.34;58.46
54920;BME280;63804;53.120;8.764;2024-01-10T12:06:47;103463.34;;;-0.26;58.84
54920;BME280;63804;53.120;8.764;2024-01-10T12:09:16;103473.88;;;-0.15;58.69
54920;BME280;63804;53.120;8.764;2024-01-10T12:11:44;103461.78;;;-0.13;57.70
54920;BME280;63804;53.120;8.764;2024-01-10T12:14:12;103457.31;;;-0.20;56.02
54920;BME280;63804;53.120;8.764;2024-01-10T12:16:40;103463.38;;;-0.21;56.19
54920;BME280;63804;53.120;8.764;2024-01-10T12:19:09;103464.44;;;-0.09;55.54
54920;BME280;63804;53.120;8.764;2024-01-10T12:21:38;103458.41;;;-0.05;55.67
54920;BME280;63804;53.120;8.764;2024-01-10T12:24:07;103458.53;;;0.03;56.02
54920;BME280;63804;53.120;8.764;2024-01-10T12:26:35;103452.38;;;-0.04;56.11
54920;BME280;63804;53.120;8.764;2024-01-10T12:29:03;103455.00;;;-0.01;55.74
54920;BME280;63804;53.120;8.764;2024-01-10T12:31:34;103442.88;;;0.02;55.77
54920;BME280;63804;53.120;8.764;2024-01-10T12:34:02;103448.00;;;-0.06;55.66
54920;BME280;63804;53.120;8.764;2024-01-10T12:36:34;103445.44;;;-0.03;55.69
54920;BME280;63804;53.120;8.764;2024-01-10T12:39:03;103450.84;;;0.12;55.54
54920;BME280;63804;53.120;8.764;2024-01-10T12:41:34;103438.66;;;0.11;54.51
54920;BME280;63804;53.120;8.764;2024-01-10T12:44:06;103430.72;;;0.01;54.69
54920;BME280;63804;53.120;8.764;2024-01-10T12:46:35;103429.97;;;0.08;54.90
54920;BME280;63804;53.120;8.764;2024-01-10T12:49:06;103427.34;;;0.08;54.60
54920;BME280;63804;53.120;8.764;2024-01-10T12:51:35;103431.66;;;0.04;54.38
54920;BME280;63804;53.120;8.764;2024-01-10T12:54:06;103422.66;;;-0.16;55.44
54920;BME280;63804;53.120;8.764;2024-01-10T12:56:34;103429.75;;;-0.06;56.08
54920;BME280;63804;53.120;8.764;2024-01-10T12:59:03;103430.00;;;0.14;55.48
54920;BME280;63804;53.120;8.764;2024-01-10T13:01:31;103423.13;;;0.17;54.79
54920;BME280;63804;53.120;8.764;2024-01-10T13:03:59;103427.41;;;0.14;55.38
54920;BME280;63804;53.120;8.764;2024-01-10T13:06:29;103426.59;;;0.16;54.70
54920;BME280;63804;53.120;8.764;2024-01-10T13:08:57;103424.91;;;0.20;54.88
54920;BME280;63804;53.120;8.764;2024-01-10T13:11:26;103423.13;;;0.17;54.38
54920;BME280;63804;53.120;8.764;2024-01-10T13:13:54;103419.63;;;0.15;54.40
54920;BME280;63804;53.120;8.764;2024-01-10T13:16:22;103429.19;;;0.18;54.06
54920;BME280;63804;53.120;8.764;2024-01-10T13:18:52;103415.38;;;0.23;54.12